Time;durP1;ratioP1;P1;durP2;ratioP2;P2;SDS_P1;SDS_P2;PMS_P1;PMS_P2;Temp;Humidity;BMP_temperature;BMP_pressure;BME280_temperature;BME280_humidity;BME280_pressure;Samples;Min_cycle;Max_cycle;Signal;HPM_P1;HPM_P2
2023/08/31 00:00:27;;;;;;;6.25;2.55;;;;;;;15.10;100.00;99873.94;8360040;28;20032;-87
2023/08/31 00:04:27;;;;;;;3.17;2.25;;;;;;;15.20;100.00;99890.88;8361495;28;20039;-86
2023/08/31 00:08:28;;;;;;;7.30;2.75;;;;;;;14.86;100.00;99849.69;8359891;28;20037;-86
2023/08/31 00:12:28;;;;;;;5.40;2.47;;;;;;;15.02;100.00;99890.38;8376829;28;20422;-86
2023/08/31 00:16:29;;;;;;;8.43;3.20;;;;;;;15.00;100.00;99892.41;8342431;28;20498;-86
2023/08/31 00:20:33;;;;;;;7.82;3.03;;;;;;;14.88;100.00;99877.56;8358894;28;20064;-87
2023/08/31 00:24:36;;;;;;;5.03;2.70;;;;;;;14.86;100.00;99857.88;8359285;28;20082;-86
2023/08/31 00:28:38;;;;;;;5.32;2.75;;;;;;;14.73;100.00;99859.50;8347796;28;20045;-86
2023/08/31 00:32:39;;;;;;;7.85;3.10;;;;;;;14.70;100.00;99847.09;8360068;28;20041;-86
2023/08/31 00:36:40;;;;;;;6.50;2.85;;;;;;;14.84;100.00;99883.56;8359654;28;20052;-86
2023/08/31 00:40:44;;;;;;;9.48;2.90;;;;;;;14.72;100.00;99888.59;8343525;28;20170;-86
2023/08/31 00:44:46;;;;;;;6.05;2.50;;;;;;;14.76;100.00;99899.97;8332146;28;20045;-86
2023/08/31 00:48:47;;;;;;;6.15;2.67;;;;;;;14.58;100.00;99883.91;8344554;28;20040;-86
2023/08/31 00:52:47;;;;;;;7.90;3.10;;;;;;;14.44;100.00;99865.69;8328354;28;20341;-86
2023/08/31 00:56:53;;;;;;;11.80;3.40;;;;;;;14.54;100.00;99860.84;8354092;28;20044;-86
2023/08/31 01:05:39;;;;;;;4.65;3.00;;;;;;;14.82;100.00;99891.06;8399699;27;20474;-87
2023/08/31 01:10:04;;;;;;;6.72;3.20;;;;;;;14.64;100.00;99875.03;8365834;28;20041;-86
2023/08/31 01:14:14;;;;;;;6.00;3.30;;;;;;;14.53;100.00;99880.91;8367623;28;20052;-87
2023/08/31 01:18:17;;;;;;;6.30;3.03;;;;;;;14.56;100.00;99896.03;8359719;28;20433;-87
2023/08/31 01:22:40;;;;;;;7.38;3.13;;;;;;;14.43;100.00;99885.75;8350438;28;20029;-85
2023/08/31 01:26:42;;;;;;;6.85;3.13;;;;;;;14.15;100.00;99845.63;8381677;27;20071;-86
2023/08/31 01:30:43;;;;;;;9.18;2.85;;;;;;;14.24;100.00;99874.50;8344547;28;20059;-87
2023/08/31 01:34:43;;;;;;;4.90;2.47;;;;;;;14.16;100.00;99880.81;8359368;28;20041;-87
2023/08/31 01:38:50;;;;;;;7.28;2.45;;;;;;;13.90;100.00;99885.69;8369817;27;20379;-86
2023/08/31 01:42:51;;;;;;;6.05;2.80;;;;;;;13.79;100.00;99899.69;8347418;28;20119;-86
2023/08/31 01:46:54;;;;;;;5.32;3.00;;;;;;;13.61;100.00;99899.06;8379147;27;20040;-86
2023/08/31 01:50:57;;;;;;;7.72;2.83;;;;;;;13.71;100.00;99910.56;8339086;28;20071;-87
2023/08/31 01:54:58;;;;;;;7.20;2.90;;;;;;;13.73;100.00;99903.09;8370179;27;20036;-86
2023/08/31 01:58:58;;;;;;;5.68;2.65;;;;;;;13.59;100.00;99901.09;8365380;28;20036;-87
2023/08/31 02:02:59;;;;;;;4.55;2.67;;;;;;;13.57;100.00;99914.00;8393806;27;20055;-86
2023/08/31 02:07:00;;;;;;;8.70;3.20;;;;;;;13.41;100.00;99919.47;8370348;27;20044;-86
2023/08/31 02:11:01;;;;;;;5.57;2.53;;;;;;;13.10;100.00;99897.66;8375792;28;20047;-87
2023/08/31 02:15:04;;;;;;;4.07;2.40;;;;;;;13.37;100.00;99891.84;8377952;28;20433;-86
2023/08/31 02:19:05;;;;;;;7.90;2.55;;;;;;;13.61;100.00;99904.50;8361355;28;20091;-87
2023/08/31 02:23:06;;;;;;;5.20;2.80;;;;;;;13.51;100.00;99882.13;8326767;28;20094;-87
2023/08/31 02:27:08;;;;;;;4.40;2.22;;;;;;;13.73;100.00;99913.97;8354582;28;20041;-87
2023/08/31 02:31:10;;;;;;;5.50;2.90;;;;;;;13.72;100.00;99907.66;8346072;28;20120;-87
2023/08/31 02:35:12;;;;;;;4.93;2.60;;;;;;;13.96;100.00;99925.72;8353991;28;20045;-86
2023/08/31 02:39:13;;;;;;;3.03;2.40;;;;;;;13.97;100.00;99927.44;8358421;28;20037;-86
2023/08/31 02:43:14;;;;;;;2.67;2.35;;;;;;;13.41;100.00;99892.31;8344043;28;20105;-86
2023/08/31 02:47:15;;;;;;;5.50;2.40;;;;;;;13.37;100.00;99912.69;8354993;28;20040;-86
2023/08/31 02:51:18;;;;;;;7.78;2.15;;;;;;;13.37;100.00;99920.84;8326220;28;20040;-86
2023/08/31 02:55:19;;;;;;;3.67;2.28;;;;;;;13.54;100.00;99920.63;8334922;28;20061;-85
2023/08/31 02:59:20;;;;;;;6.72;2.38;;;;;;;13.32;100.00;99924.06;8340623;28;20071;-84
2023/08/31 03:03:20;;;;;;;4.93;2.22;;;;;;;13.32;100.00;99920.50;8341849;28;20041;-85
2023/08/31 03:07:21;;;;;;;4.40;2.55;;;;;;;13.52;100.00;99921.84;8338119;28;20044;-85
2023/08/31 03:11:21;;;;;;;5.32;2.15;;;;;;;13.54;100.00;99909.75;8349813;28;20419;-86
2023/08/31 03:15:23;;;;;;;5.03;2.30;;;;;;;13.59;100.00;99901.09;8334953;28;20041;-86
2023/08/31 03:19:24;;;;;;;4.65;2.28;;;;;;;13.48;100.00;99863.47;8340151;28;20499;-86
2023/08/31 03:23:25;;;;;;;4.53;2.53;;;;;;;13.95;100.00;99918.63;8320190;28;20511;-86
2023/08/31 03:27:26;;;;;;;8.65;2.38;;;;;;;14.02;100.00;99925.03;8324935;28;20033;-85
2023/08/31 03:31:26;;;;;;;2.65;2.22;;;;;;;13.94;100.00;99900.63;8369103;28;20071;-86
2023/08/31 03:35:28;;;;;;;6.85;2.85;;;;;;;14.10;100.00;99925.00;8365636;28;20059;-86
2023/08/31 03:39:29;;;;;;;4.22;2.30;;;;;;;14.27;100.00;99940.22;8325866;28;20032;-86
2023/08/31 03:43:30;;;;;;;2.78;1.90;;;;;;;14.07;100.00;99906.34;8357703;28;20124;-86
2023/08/31 03:47:30;;;;;;;7.25;2.70;;;;;;;14.19;100.00;99932.09;8332842;28;20087;-86
2023/08/31 03:51:31;;;;;;;3.00;2.20;;;;;;;13.69;100.00;99890.84;8340004;28;20037;-87
2023/08/31 03:55:32;;;;;;;3.58;2.40;;;;;;;13.70;100.00;99911.59;8368443;28;20081;-80
2023/08/31 03:59:33;;;;;;;10.23;3.00;;;;;;;13.81;100.00;99932.94;8328213;28;20029;-80
2023/08/31 04:03:34;;;;;;;3.08;2.55;;;;;;;13.84;100.00;99932.56;8331462;28;20048;-80
2023/08/31 04:07:35;;;;;;;5.35;2.88;;;;;;;13.78;100.00;99944.16;8359139;28;20038;-80
2023/08/31 04:11:36;;;;;;;9.05;3.10;;;;;;;13.72;100.00;99933.97;8328191;28;20038;-80
2023/08/31 04:15:37;;;;;;;4.15;2.47;;;;;;;13.64;100.00;99942.16;8352459;28;20617;-80
2023/08/31 04:19:38;;;;;;;4.10;2.78;;;;;;;13.44;100.00;99952.56;8346306;28;20455;-80
2023/08/31 04:23:39;;;;;;;3.67;2.53;;;;;;;13.31;100.00;99959.53;8355729;28;20456;-80
2023/08/31 04:27:40;;;;;;;7.57;3.03;;;;;;;13.24;100.00;99950.41;8369423;28;20064;-80
2023/08/31 04:31:40;;;;;;;9.38;3.33;;;;;;;13.37;100.00;99956.13;8306092;28;20040;-81
2023/08/31 04:35:41;;;;;;;7.00;2.70;;;;;;;13.01;100.00;99960.22;8345174;28;20041;-80
2023/08/31 04:39:41;;;;;;;6.28;3.17;;;;;;;12.93;100.00;99962.94;8371094;28;20037;-81
2023/08/31 04:43:42;;;;;;;7.35;3.15;;;;;;;12.96;100.00;99962.59;8379883;28;20413;-80
2023/08/31 04:47:43;;;;;;;4.38;2.70;;;;;;;12.79;100.00;99944.59;8353855;28;20541;-80
2023/08/31 04:51:44;;;;;;;6.40;2.80;;;;;;;12.75;100.00;99976.63;8336719;28;20036;-79
2023/08/31 04:55:45;;;;;;;4.82;3.20;;;;;;;12.60;100.00;99950.34;8330274;28;20033;-80
2023/08/31 04:59:45;;;;;;;7.88;3.53;;;;;;;12.89;100.00;99989.53;8323881;28;20132;-80
2023/08/31 05:03:46;;;;;;;5.45;2.75;;;;;;;12.70;100.00;99991.72;8342516;28;20041;-79
2023/08/31 05:07:46;;;;;;;9.23;3.28;;;;;;;12.75;100.00;99981.22;8322625;28;20034;-80
2023/08/31 05:11:47;;;;;;;4.75;3.15;;;;;;;12.91;100.00;99989.38;8334858;28;20034;-79
2023/08/31 05:15:47;;;;;;;4.82;3.35;;;;;;;13.08;100.00;99958.53;8323416;28;20037;-80
2023/08/31 05:19:51;;;;;;;5.10;2.95;;;;;;;13.67;100.00;99991.53;8315172;28;20415;-80
2023/08/31 05:23:51;;;;;;;7.50;2.80;;;;;;;14.07;100.00;100009.63;8329999;28;20447;-80
2023/08/31 05:27:52;;;;;;;5.53;2.92;;;;;;;13.98;100.00;99988.94;8333731;28;20275;-80
2023/08/31 05:31:53;;;;;;;5.38;2.50;;;;;;;14.12;100.00;100012.63;8348675;28;20406;-81
2023/08/31 05:35:53;;;;;;;12.80;3.20;;;;;;;14.37;100.00;100021.59;8365198;28;20029;-81
2023/08/31 05:39:54;;;;;;;7.95;2.22;;;;;;;14.42;100.00;100030.91;8323768;28;20048;-81
2023/08/31 05:44:00;;;;;;;4.32;2.20;;;;;;;14.70;100.00;100029.41;8315512;28;20153;-81
2023/08/31 05:48:01;;;;;;;7.30;2.35;;;;;;;15.02;100.00;100037.38;8323145;28;20029;-81
2023/08/31 05:52:01;;;;;;;5.95;2.25;;;;;;;15.20;100.00;100034.34;8368341;28;20036;-88
2023/08/31 05:56:06;;;;;;;9.25;2.25;;;;;;;15.20;100.00;100018.88;8341226;28;20044;-88
2023/08/31 06:00:08;;;;;;;9.80;2.03;;;;;;;15.37;99.21;100012.28;8354718;28;20380;-89
2023/08/31 06:14:54;;;;;;;5.63;2.00;;;;;;;16.07;95.31;100036.47;10266435;22;1230079;-89
2023/08/31 06:18:55;;;;;;;3.63;1.52;;;;;;;16.35;94.06;100053.88;10247231;22;20020;-90
2023/08/31 06:22:55;;;;;;;7.05;1.85;;;;;;;16.75;93.71;100048.78;10244279;22;20020;-89
2023/08/31 06:26:56;;;;;;;4.80;1.60;;;;;;;17.10;91.11;100052.50;10244128;22;20488;-89
2023/08/31 06:30:57;;;;;;;4.32;1.50;;;;;;;17.32;89.44;100057.81;10269481;22;20012;-89
2023/08/31 06:34:57;;;;;;;7.50;1.80;;;;;;;17.13;88.54;100030.28;10243941;22;20012;-89
2023/08/31 06:38:58;;;;;;;2.67;1.50;;;;;;;17.36;89.98;100052.81;10244538;22;20023;-88
2023/08/31 06:42:59;;;;;;;21.67;2.30;;;;;;;17.58;88.47;100046.31;10244348;22;20013;-88
2023/08/31 06:47:00;;;;;;;3.85;1.70;;;;;;;17.78;87.03;100046.47;10244542;22;20016;-89
2023/08/31 06:51:03;;;;;;;3.95;1.73;;;;;;;18.02;84.48;100063.28;10219599;22;20032;-89
2023/08/31 06:55:06;;;;;;;5.57;1.50;;;;;;;18.41;85.18;100052.63;10244407;22;20017;-89
2023/08/31 06:59:06;;;;;;;6.45;1.13;;;;;;;18.50;83.27;100067.84;10245289;22;20082;-89
2023/08/31 07:03:07;;;;;;;4.25;1.52;;;;;;;18.47;82.44;100048.22;10243774;22;20016;-88
2023/08/31 07:07:08;;;;;;;4.72;1.30;;;;;;;18.68;82.31;100068.16;10269333;22;20460;-88
2023/08/31 07:11:08;;;;;;;4.97;1.33;;;;;;;18.74;82.04;100078.28;10243853;22;20008;-89
2023/08/31 07:15:09;;;;;;;2.58;1.15;;;;;;;18.93;82.90;100072.03;10259189;23;20472;-89
2023/08/31 07:19:10;;;;;;;5.28;1.35;;;;;;;19.15;80.45;100076.31;10283005;23;20025;-89
2023/08/31 07:23:10;;;;;;;1.50;0.82;;;;;;;19.12;80.10;100082.22;10232350;23;20357;-88
2023/08/31 07:27:11;;;;;;;3.95;1.13;;;;;;;19.19;79.23;100077.59;10232638;23;20017;-90
2023/08/31 07:31:12;;;;;;;3.17;0.90;;;;;;;19.28;78.15;100081.88;10232754;23;20017;-89
2023/08/31 07:35:12;;;;;;;2.88;0.80;;;;;;;19.32;78.16;100072.19;10233129;23;20326;-89
2023/08/31 07:39:13;;;;;;;3.40;1.00;;;;;;;19.63;75.64;100085.31;10207907;23;20009;-89
2023/08/31 07:43:13;;;;;;;1.65;0.93;;;;;;;19.93;76.61;100096.72;10256730;23;20036;-89
2023/08/31 07:47:14;;;;;;;5.13;1.13;;;;;;;19.79;76.01;100092.31;10232058;23;20355;-89
2023/08/31 07:51:14;;;;;;;1.73;0.75;;;;;;;19.72;76.19;100105.16;10232168;23;20019;-88
2023/08/31 07:55:15;;;;;;;2.05;0.82;;;;;;;19.44;76.20;100094.38;10232466;23;20401;-88
2023/08/31 07:59:17;;;;;;;5.53;0.85;;;;;;;19.84;75.41;100108.97;10257268;23;20039;-88
2023/08/31 08:03:17;;;;;;;4.05;1.52;;;;;;;19.91;74.35;100101.59;10281940;23;20032;-88
2023/08/31 08:07:18;;;;;;;4.13;1.13;;;;;;;20.04;75.63;100115.31;10231570;23;20036;-88
2023/08/31 08:11:18;;;;;;;3.15;0.80;;;;;;;20.33;76.08;100115.75;10231192;23;20016;-89
2023/08/31 08:15:19;;;;;;;4.22;1.20;;;;;;;20.26;72.68;100103.94;10230468;23;20013;-89
2023/08/31 08:19:22;;;;;;;4.57;0.90;;;;;;;19.92;73.17;100117.00;10205443;23;20016;-87
2023/08/31 08:23:23;;;;;;;6.28;1.60;;;;;;;19.48;74.51;100115.69;10154036;23;20484;-88
2023/08/31 08:27:23;;;;;;;4.38;1.40;;;;;;;19.65;74.41;100120.75;10180306;23;20389;-90
2023/08/31 08:31:24;;;;;;;4.40;1.05;;;;;;;19.91;73.32;100115.31;10178181;23;20461;-88
2023/08/31 08:35:25;;;;;;;3.88;1.15;;;;;;;20.06;73.81;100118.72;10181559;23;20398;-88
2023/08/31 08:39:25;;;;;;;2.80;1.00;;;;;;;20.52;71.75;100114.88;10231310;23;20013;-89
2023/08/31 08:43:26;;;;;;;5.78;1.30;;;;;;;20.51;71.52;100131.56;10229108;23;20127;-90
2023/08/31 08:47:27;;;;;;;6.88;0.80;;;;;;;20.73;72.74;100127.50;10228890;23;20021;-87
2023/08/31 08:51:28;;;;;;;2.00;0.98;;;;;;;20.95;71.47;100126.22;10180002;23;20017;-89
2023/08/31 08:55:28;;;;;;;3.35;0.98;;;;;;;20.83;71.66;100122.41;10180436;23;20512;-88
2023/08/31 08:59:30;;;;;;;2.78;0.98;;;;;;;21.00;71.28;100151.13;10204441;23;20071;-90
2023/08/31 09:03:31;;;;;;;6.13;1.25;;;;;;;20.93;72.02;100123.66;10209714;23;20028;-94
2023/08/31 09:07:36;;;;;;;3.65;0.80;;;;;;;21.48;69.58;100138.66;10207739;23;20092;-94
2023/08/31 09:11:36;;;;;;;2.80;1.05;;;;;;;21.41;69.59;100154.34;10185933;23;20025;-95
2023/08/31 09:15:42;;;;;;;5.63;1.25;;;;;;;21.44;69.55;100148.41;10216725;23;20464;-94
2023/08/31 09:19:43;;;;;;;4.55;1.63;;;;;;;21.13;69.38;100148.31;10209023;23;20191;-96
2023/08/31 09:23:47;;;;;;;4.18;1.20;;;;;;;21.43;70.35;100154.97;10232894;23;20096;-94
2023/08/31 09:27:48;;;;;;;;;;;;;;;21.71;68.62;100160.13;10233332;23;20050;-95
2023/08/31 09:31:49;;;;;;;4.20;0.95;;;;;;;21.95;67.84;100154.66;10234067;23;19959;-94
2023/08/31 09:35:53;;;;;;;2.25;0.85;;;;;;;23.02;65.45;100149.66;10232017;23;20016;-95
2023/08/31 09:39:54;;;;;;;3.08;1.10;;;;;;;24.48;61.37;100146.28;10194022;23;20012;-94
2023/08/31 09:43:54;;;;;;;1.92;0.70;;;;;;;25.79;56.45;100153.66;10231452;23;20469;-94
2023/08/31 09:47:55;;;;;;;6.20;1.00;;;;;;;26.68;56.34;100150.00;10282479;23;20091;-94
2023/08/31 09:52:00;;;;;;;1.80;0.70;;;;;;;27.24;53.87;100154.41;10231661;23;20024;-95
2023/08/31 09:56:02;;;;;;;5.25;0.82;;;;;;;27.37;53.12;100142.94;10232524;23;20071;-93
2023/08/31 10:00:03;;;;;;;3.83;0.98;;;;;;;27.29;52.70;100151.75;10231280;23;20016;-93
2023/08/31 10:04:21;;;;;;;4.07;1.10;;;;;;;27.74;52.97;100155.03;8398246;27;1213936;-90
2023/08/31 10:08:23;;;;;;;4.90;1.05;;;;;;;27.54;51.81;100160.38;8391911;28;20551;-92
2023/08/31 10:12:26;;;;;;;4.25;1.08;;;;;;;25.57;56.07;100158.22;8378152;28;20096;-92
2023/08/31 10:16:27;;;;;;;5.57;1.48;;;;;;;24.63;58.08;100154.94;8355629;28;20033;-91
2023/08/31 10:20:31;;;;;;;5.55;1.23;;;;;;;23.81;60.68;100152.25;8378726;28;20040;-91
2023/08/31 10:24:59;;;;;;;6.53;1.50;;;;;;;23.45;60.64;100139.38;8378027;28;20040;-91
2023/08/31 10:29:02;;;;;;;6.97;1.50;;;;;;;22.53;65.57;100139.59;8387765;28;20041;-92
2023/08/31 10:47:49;;;;;;;4.93;1.63;;;;;;;25.70;57.34;100157.06;10291387;22;1231985;-89
2023/08/31 10:52:18;;;;;;;6.68;1.80;;;;;;;25.12;58.24;100154.44;10291880;22;20086;-89
2023/08/31 10:56:19;;;;;;;9.18;1.75;;;;;;;23.10;62.97;100147.47;10316850;23;20086;-89
2023/08/31 11:00:46;;;;;;;7.43;1.33;;;;;;;21.89;67.58;100149.22;10241377;22;20059;-89
2023/08/31 11:05:07;;;;;;;4.15;1.40;;;;;;;21.10;71.98;100146.00;10291551;22;20027;-88
2023/08/31 11:09:19;;;;;;;8.32;1.95;;;;;;;20.41;75.75;100139.41;10291781;22;20020;-88
2023/08/31 11:13:19;;;;;;;7.90;1.75;;;;;;;20.30;78.13;100149.13;10292448;22;20070;-89
2023/08/31 11:17:20;;;;;;;5.78;1.98;;;;;;;19.82;79.84;100155.00;10292724;22;20012;-92
2023/08/31 11:21:21;;;;;;;5.45;1.77;;;;;;;18.77;88.22;100160.06;10292935;22;20073;-91
2023/08/31 11:25:23;;;;;;;2.22;1.45;;;;;;;18.39;92.69;100164.19;10292565;22;20016;-89
2023/08/31 11:29:24;;;;;;;6.82;2.35;;;;;;;18.45;100.00;100146.97;10292302;22;20027;-90
2023/08/31 11:33:32;;;;;;;6.07;2.50;;;;;;;18.77;100.00;100146.34;10291282;22;20011;-90
2023/08/31 11:37:33;;;;;;;4.95;1.77;;;;;;;19.00;97.97;100146.88;10316754;22;20087;-90
2023/08/31 11:41:36;;;;;;;7.32;2.40;;;;;;;19.15;92.74;100136.63;10267940;22;20027;-89
2023/08/31 11:45:38;;;;;;;7.15;2.03;;;;;;;19.22;92.52;100139.41;10283284;22;20020;-90
2023/08/31 11:49:41;;;;;;;4.65;1.83;;;;;;;20.14;89.66;100133.09;10305504;22;20543;-91
2023/08/31 11:53:41;;;;;;;5.18;1.73;;;;;;;22.52;78.66;100143.44;10280345;22;20016;-89
2023/08/31 11:57:51;;;;;;;6.38;2.13;;;;;;;22.49;77.04;100132.81;10305541;22;20016;-89
2023/08/31 12:01:51;;;;;;;5.03;1.85;;;;;;;21.67;78.68;100154.19;10305228;22;20020;-90
2023/08/31 12:05:55;;;;;;;6.30;2.35;;;;;;;20.10;86.60;100145.50;10332809;22;20023;-90
2023/08/31 12:10:02;;;;;;;4.68;1.05;;;;;;;18.34;83.81;100180.38;10334951;22;20351;-90
2023/08/31 12:14:18;;;;;;;3.72;1.17;;;;;;;17.87;87.04;100166.47;10329815;22;20058;-90
2023/08/31 12:18:18;;;;;;;4.38;1.08;;;;;;;17.87;90.95;100151.97;10331967;22;20015;-89
2023/08/31 12:23:27;;;;;;;5.68;2.45;;;;;;;18.30;92.42;100151.69;10288897;22;20038;-90
2023/08/31 12:27:30;;;;;;;5.63;2.38;;;;;;;18.68;93.68;100138.50;10011991;23;20712;-88
2023/08/31 12:31:32;;;;;;;4.20;1.60;;;;;;;19.27;91.91;100140.50;10275887;22;20535;-96
2023/08/31 12:35:32;;;;;;;7.50;1.95;;;;;;;20.14;90.87;100134.97;10286872;22;20016;-95
2023/08/31 12:39:33;;;;;;;6.38;2.40;;;;;;;20.36;88.74;100128.19;10313315;22;20024;-95
2023/08/31 12:43:34;;;;;;;8.05;2.13;;;;;;;20.57;81.19;100126.06;10335868;22;20399;-95
2023/08/31 12:47:35;;;;;;;2.95;2.13;;;;;;;20.78;82.95;100124.97;10285927;22;20041;-96
2023/08/31 12:51:36;;;;;;;6.18;2.80;;;;;;;21.26;84.18;100134.53;10366473;22;20016;-96
2023/08/31 12:55:36;;;;;;;4.25;1.77;;;;;;;21.22;83.06;100128.63;10315484;22;20015;-95
2023/08/31 12:59:37;;;;;;;7.05;2.03;;;;;;;21.04;84.18;100142.22;10285350;22;20022;-95
2023/08/31 13:03:37;;;;;;;6.95;2.25;;;;;;;21.13;85.59;100145.56;10316435;22;20030;-95
2023/08/31 13:07:38;;;;;;;4.32;1.85;;;;;;;21.04;82.16;100128.50;10369440;22;20031;-93
2023/08/31 13:11:39;;;;;;;4.13;1.67;;;;;;;20.97;78.36;100130.44;10283095;22;20023;-95
2023/08/31 13:15:40;;;;;;;5.18;1.85;;;;;;;20.91;77.65;100127.66;10291632;22;20081;-95
2023/08/31 13:19:40;;;;;;;4.88;2.03;;;;;;;21.00;78.97;100130.00;10261065;22;20032;-95
2023/08/31 13:23:43;;;;;;;4.22;1.17;;;;;;;21.04;75.15;100131.25;10279957;22;20090;-96
2023/08/31 13:27:44;;;;;;;2.90;1.45;;;;;;;21.20;74.94;100124.41;10286446;22;20008;-96
2023/08/31 13:31:45;;;;;;;3.72;1.35;;;;;;;21.39;74.72;100117.97;10284939;22;20026;-96
2023/08/31 13:35:46;;;;;;;4.65;1.70;;;;;;;21.47;74.20;100120.44;10283857;22;20011;-96
2023/08/31 13:39:50;;;;;;;5.93;1.52;;;;;;;21.93;74.33;100126.53;10311194;22;20019;-96
2023/08/31 13:43:52;;;;;;;4.57;1.95;;;;;;;22.24;73.93;100118.22;10327555;22;20015;-91
2023/08/31 13:47:53;;;;;;;5.10;1.83;;;;;;;22.15;70.19;100105.81;10351849;22;20101;-90
2023/08/31 13:51:54;;;;;;;5.22;1.20;;;;;;;22.16;68.52;100099.22;10300691;22;20065;-93
2023/08/31 13:55:55;;;;;;;4.93;1.23;;;;;;;22.37;67.50;100101.56;10303198;22;20069;-89
2023/08/31 13:59:55;;;;;;;6.45;1.30;;;;;;;22.29;66.40;100112.88;10333476;22;20019;-89
2023/08/31 14:03:56;;;;;;;5.32;1.70;;;;;;;22.18;66.56;100124.63;10304901;22;20035;-89
2023/08/31 14:07:58;;;;;;;5.78;1.20;;;;;;;22.12;67.89;100109.00;10308576;22;20398;-90
2023/08/31 14:11:58;;;;;;;5.80;1.77;;;;;;;22.13;68.64;100099.69;10358159;22;20027;-88
2023/08/31 14:16:00;;;;;;;5.72;1.50;;;;;;;22.42;69.11;100087.94;10304040;22;20019;-89
2023/08/31 14:20:05;;;;;;;4.78;1.25;;;;;;;22.53;65.92;100105.66;10303376;22;20022;-91
2023/08/31 14:24:07;;;;;;;2.88;1.00;;;;;;;22.38;63.71;100097.72;10335783;22;20019;-90
2023/08/31 14:28:07;;;;;;;3.63;1.08;;;;;;;22.37;62.95;100117.25;10308909;22;20069;-91
2023/08/31 14:32:08;;;;;;;2.50;1.08;;;;;;;21.99;61.40;100113.78;10287544;22;20015;-92
2023/08/31 14:36:09;;;;;;;3.05;1.02;;;;;;;21.82;62.71;100091.47;10360898;22;20019;-92
2023/08/31 14:40:10;;;;;;;5.35;1.27;;;;;;;21.89;64.00;100114.28;10287526;22;20011;-92
2023/08/31 14:44:10;;;;;;;4.65;1.17;;;;;;;22.28;63.92;100113.94;10337695;22;20329;-92
2023/08/31 14:48:11;;;;;;;2.88;1.30;;;;;;;22.43;63.58;100119.94;10361869;22;20015;-92
2023/08/31 14:52:11;;;;;;;3.58;1.33;;;;;;;22.27;64.52;100111.41;10362702;22;20038;-92
2023/08/31 14:56:12;;;;;;;6.30;1.65;;;;;;;22.57;63.76;100124.28;10311694;22;20023;-92
2023/08/31 15:00:14;;;;;;;3.17;1.17;;;;;;;22.66;62.09;100106.38;10315420;22;20012;-92
2023/08/31 15:04:15;;;;;;;4.03;1.15;;;;;;;22.90;60.94;100124.75;10286912;22;20060;-93
2023/08/31 15:08:15;;;;;;;6.43;1.52;;;;;;;22.82;60.53;100132.50;10311577;22;20336;-92
2023/08/31 15:12:16;;;;;;;3.92;1.17;;;;;;;22.70;61.63;100140.69;10310063;22;20020;-92
2023/08/31 15:16:17;;;;;;;2.60;1.10;;;;;;;22.37;62.28;100131.88;10286904;22;20045;-93
2023/08/31 15:20:17;;;;;;;5.80;1.52;;;;;;;22.30;63.41;100128.34;10310417;22;20027;-92
2023/08/31 15:24:18;;;;;;;3.05;1.50;;;;;;;22.35;63.22;100150.53;10289499;22;20021;-91
2023/08/31 15:28:18;;;;;;;2.72;1.30;;;;;;;22.13;64.28;100146.50;10288434;22;20019;-92
2023/08/31 15:32:19;;;;;;;2.10;1.10;;;;;;;22.05;65.33;100152.25;10288287;22;20083;-92
2023/08/31 15:36:20;;;;;;;3.88;1.20;;;;;;;21.97;66.73;100144.28;10313469;22;20110;-92
2023/08/31 15:40:21;;;;;;;3.58;1.40;;;;;;;22.01;67.37;100134.50;10312106;22;20107;-92
2023/08/31 15:44:22;;;;;;;4.80;1.42;;;;;;;22.00;68.11;100149.34;10338759;22;20016;-91
2023/08/31 15:48:22;;;;;;;5.10;1.17;;;;;;;21.89;66.75;100152.81;10279201;22;20098;-92
2023/08/31 15:52:23;;;;;;;6.57;1.50;;;;;;;21.96;65.46;100170.13;10297213;22;20500;-92
2023/08/31 15:56:23;;;;;;;4.50;1.60;;;;;;;21.72;66.55;100146.13;10312601;22;20020;-92
2023/08/31 16:00:24;;;;;;;4.20;1.38;;;;;;;21.64;68.00;100140.88;10364019;22;20018;-92
2023/08/31 16:04:25;;;;;;;2.75;1.23;;;;;;;21.74;68.19;100149.53;10311207;22;20018;-96
2023/08/31 16:08:27;;;;;;;3.25;1.55;;;;;;;21.63;67.98;100158.47;10360728;22;20394;-96
2023/08/31 16:12:27;;;;;;;5.03;1.50;;;;;;;21.59;69.09;100154.44;10286491;22;20007;-95
2023/08/31 16:16:28;;;;;;;9.02;1.90;;;;;;;21.28;67.79;100122.25;10304313;22;20463;-96
2023/08/31 16:20:32;;;;;;;4.65;1.80;;;;;;;21.31;68.41;100142.97;10276647;22;20476;-96
2023/08/31 16:24:32;;;;;;;6.03;2.00;;;;;;;21.29;67.48;100156.09;10316195;22;20020;-96
2023/08/31 16:28:36;;;;;;;4.32;1.50;;;;;;;21.27;67.36;100138.97;10318309;22;20255;-96
2023/08/31 16:32:36;;;;;;;2.40;1.25;;;;;;;21.39;67.52;100131.72;10293933;22;20099;-96
2023/08/31 16:36:37;;;;;;;12.57;1.67;;;;;;;21.46;67.09;100154.53;10287562;22;20016;-84
2023/08/31 16:40:37;;;;;;;4.75;1.63;;;;;;;21.31;66.58;100153.97;10330210;22;20679;-86
2023/08/31 16:44:38;;;;;;;3.63;1.38;;;;;;;21.10;66.43;100166.09;10333466;22;20037;-86
2023/08/31 16:48:38;;;;;;;5.45;1.13;;;;;;;20.94;68.25;100149.22;10299275;22;20023;-85
2023/08/31 16:52:39;;;;;;;6.47;1.95;;;;;;;20.99;68.19;100154.94;10350120;22;20394;-86
2023/08/31 16:56:39;;;;;;;3.72;1.42;;;;;;;20.85;67.77;100137.63;10325683;22;20360;-86
2023/08/31 17:00:42;;;;;;;6.15;1.38;;;;;;;20.90;68.19;100156.22;10328590;22;20028;-86
2023/08/31 17:04:43;;;;;;;4.32;1.30;;;;;;;20.80;69.47;100147.59;10327563;22;20104;-85
2023/08/31 17:08:44;;;;;;;3.72;1.30;;;;;;;20.71;68.85;100146.13;10300589;22;20007;-85
2023/08/31 17:12:44;;;;;;;3.28;2.33;;;;;;;20.79;68.08;100148.63;10278312;22;20093;-86
2023/08/31 17:16:46;;;;;;;5.50;1.23;;;;;;;20.73;68.94;100149.47;10328312;22;20541;-87
2023/08/31 17:20:46;;;;;;;7.75;1.45;;;;;;;20.57;69.07;100127.97;10299927;22;20016;-82
2023/08/31 17:24:47;;;;;;;5.38;1.13;;;;;;;20.62;70.51;100164.72;10298221;22;20027;-81
2023/08/31 17:28:48;;;;;;;5.47;1.38;;;;;;;20.49;72.01;100169.41;10322460;22;20406;-81
2023/08/31 17:32:48;;;;;;;4.80;1.45;;;;;;;20.29;72.61;100147.44;10323002;22;20456;-82
2023/08/31 17:36:49;;;;;;;6.82;1.40;;;;;;;20.30;73.04;100170.25;10308634;22;20335;-81
2023/08/31 17:40:49;;;;;;;4.13;1.52;;;;;;;20.18;73.51;100161.78;10273124;22;20065;-82
2023/08/31 17:44:50;;;;;;;3.53;1.35;;;;;;;20.08;72.92;100150.38;10272244;22;20355;-82
2023/08/31 17:48:51;;;;;;;6.30;1.50;;;;;;;20.12;71.08;100156.25;10324934;22;20053;-82
2023/08/31 17:52:51;;;;;;;4.35;1.33;;;;;;;20.05;71.86;100159.03;10322341;22;20077;-81
2023/08/31 17:56:52;;;;;;;4.97;1.25;;;;;;;19.96;74.36;100181.38;10322480;22;20016;-81
2023/08/31 18:00:52;;;;;;;6.32;1.83;;;;;;;19.83;75.77;100186.84;10322341;22;20015;-81
2023/08/31 18:04:53;;;;;;;7.28;1.63;;;;;;;19.64;77.36;100162.97;10322586;22;20290;-81
2023/08/31 18:08:54;;;;;;;5.88;1.83;;;;;;;19.52;76.85;100158.06;10307835;22;20456;-81
2023/08/31 18:12:55;;;;;;;8.32;1.88;;;;;;;19.51;78.18;100193.09;10242566;22;20402;-81
2023/08/31 18:16:55;;;;;;;6.15;1.95;;;;;;;19.46;79.11;100205.50;10325709;22;20015;-81
2023/08/31 18:20:57;;;;;;;11.02;2.03;;;;;;;19.17;80.93;100194.81;10313754;22;20028;-81
2023/08/31 18:24:58;;;;;;;7.45;2.10;;;;;;;19.10;80.71;100209.53;10322965;22;20012;-81
2023/08/31 18:28:59;;;;;;;8.25;1.88;;;;;;;18.97;81.30;100215.78;10297777;22;20037;-81
2023/08/31 18:33:01;;;;;;;5.43;1.52;;;;;;;18.98;77.83;100211.16;10342474;22;20065;-81
2023/08/31 18:37:02;;;;;;;6.53;1.70;;;;;;;19.03;79.57;100223.19;10321955;22;20030;-81
2023/08/31 18:41:03;;;;;;;5.97;2.28;;;;;;;18.68;78.47;100194.13;10271160;22;20030;-81
2023/08/31 18:45:06;;;;;;;7.93;2.55;;;;;;;18.63;78.80;100201.25;10294332;22;20561;-81
2023/08/31 18:49:06;;;;;;;3.28;1.42;;;;;;;18.60;79.46;100209.88;10347570;22;20030;-81
2023/08/31 18:53:07;;;;;;;4.18;1.85;;;;;;;18.67;79.47;100230.75;10322863;22;20049;-81
2023/08/31 18:57:09;;;;;;;7.20;1.70;;;;;;;18.54;79.82;100233.41;10346832;22;20299;-81
2023/08/31 19:01:09;;;;;;;6.38;1.88;;;;;;;18.38;81.36;100241.91;10326495;22;20102;-81
2023/08/31 19:05:10;;;;;;;10.05;2.03;;;;;;;18.23;81.36;100234.78;10325083;22;20471;-81